LFBT/LDE METAR and TAF weather

Enter ICAO airport designator
Station Type Date Time Source
LFBT METAR 2019/11/18 11:30 UTC NOAA

LFBT 181130Z AUTO 29007KT 9999 FEW017 OVC045 06/04 Q1015 NOSIG


Station Type Date Time Source
LFBT Decoded METAR 2019/11/18 11:30 UTC NOAA

Tarbes Ossun Lourdes, France (LFBT) 43-11N 000-00W 363M
Nov 18, 2019 - 06:30 AM EST / 2019.11.18 1130 UTC
Wind: from the WNW (290 degrees) at 8 MPH (7 KT):0
Visibility: greater than 7 mile(s):0
Sky conditions: overcast
Temperature: 42 F (6 C)
Dew Point: 39 F (4 C)
Relative Humidity: 86%
Pressure (altimeter): 29.97 in. Hg (1015 hPa)
ob: LFBT 181130Z AUTO 29007KT 9999 FEW017 OVC045 06/04 Q1015 NOSIG
cycle: 11

Station Type Date Time Source
LFBT TAF 2019/11/18 12:21 UTC NOAA

TAF LFBT 181100Z 1812/1912 28007KT 9999 BKN030
BECMG 1816/1818 SCT040
BECMG 1900/1902 VRB02KT CAVOK

Example: see airport list